Terminal Aerodrome Forecast
Issued by NWS

Home | Current Version | Previous Version | Text Only | Print | Product List | Glossary On
Versions: 1 2 3 4 5 6 7 8 9 10 11 12 13 14 15 16 17 18 19 20 21 22 23 24 25 26 27 28 29
000
FTUS44 KTSA 250500
TAFBVO
TAF
KBVO 250520Z 2506/2606 16005KT P6SM OVC003
     FM251000 17007KT 4SM BR OVC003
     FM251500 18010KT P6SM BKN015
     FM251800 18014KT P6SM SCT050=

USA.gov is the U.S. government's official web portal to all federal, state and local government web resources and services.